MAS304 VOMM-WMKK
Flight info
| Callsign | MAS304 |
|---|---|
| Flight time | N/A |
| Altitude | 35000 |
| Route | GIRNA2A GIRNA P574 DUBTA/N0462F370 P574 PUGER PUGER3J |
| Aircraft | B738/M-SDE2E3FGHIRWXY/LB1 |
Departure
| Time | N/A |
|---|---|
| Airport | Chennai International Airport (VOMM) |
Arrival
| Time | 2026-05-04 15:57 |
|---|---|
| Airport | Kuala Lumpur International Airport (WMKK) |
| Time | Latitude | Longitude | Altitude | Speed | Heading |
|---|---|---|---|---|---|
| 2026-05-04 15:23 | 4.10410 | 99.00542 | 36905 ft | 452 kts | 117° |
| 2026-05-04 15:23 | 4.08902 | 99.03304 | 36907 ft | 452 kts | 117° |
| 2026-05-04 15:23 | 4.05878 | 99.08840 | 36907 ft | 453 kts | 117° |
| 2026-05-04 15:24 | 3.99845 | 99.19883 | 36905 ft | 454 kts | 117° |
| 2026-05-04 15:25 | 3.96815 | 99.25426 | 36906 ft | 454 kts | 117° |
| 2026-05-04 15:26 | 3.92257 | 99.33764 | 36905 ft | 455 kts | 118° |
| 2026-05-04 15:26 | 3.87720 | 99.42062 | 36903 ft | 455 kts | 118° |
| 2026-05-04 15:27 | 3.83147 | 99.50423 | 36901 ft | 456 kts | 118° |
| 2026-05-04 15:28 | 3.78589 | 99.58753 | 36905 ft | 456 kts | 118° |
| 2026-05-04 15:29 | 3.74019 | 99.67104 | 36905 ft | 455 kts | 118° |
| 2026-05-04 15:30 | 3.63372 | 99.86549 | 36910 ft | 453 kts | 118° |
| 2026-05-04 15:31 | 3.58840 | 99.94824 | 36911 ft | 453 kts | 117° |
| 2026-05-04 15:32 | 3.54263 | 100.03178 | 35782 ft | 457 kts | 118° |
| 2026-05-04 15:32 | 3.51196 | 100.08775 | 34490 ft | 460 kts | 118° |
| 2026-05-04 15:33 | 3.48127 | 100.14373 | 33463 ft | 456 kts | 118° |
| 2026-05-04 15:34 | 3.43626 | 100.22585 | 32050 ft | 445 kts | 118° |
| 2026-05-04 15:34 | 3.42145 | 100.25286 | 31594 ft | 442 kts | 118° |
| 2026-05-04 15:34 | 3.39180 | 100.30625 | 30715 ft | 435 kts | 120° |
| 2026-05-04 15:35 | 3.36020 | 100.35724 | 29920 ft | 426 kts | 121° |
| 2026-05-04 15:35 | 3.34428 | 100.38217 | 29470 ft | 422 kts | 121° |
| 2026-05-04 15:35 | 3.32846 | 100.40699 | 29091 ft | 429 kts | 121° |
| 2026-05-04 15:36 | 3.29538 | 100.45938 | 28293 ft | 460 kts | 121° |
| 2026-05-04 15:36 | 3.27820 | 100.48675 | 27860 ft | 466 kts | 121° |
| 2026-05-04 15:36 | 3.26118 | 100.51392 | 27423 ft | 464 kts | 121° |
| 2026-05-04 15:37 | 3.24412 | 100.54119 | 27003 ft | 461 kts | 121° |
| 2026-05-04 15:37 | 3.22721 | 100.56822 | 26593 ft | 457 kts | 121° |
| 2026-05-04 15:37 | 3.21041 | 100.59508 | 26185 ft | 455 kts | 121° |
| 2026-05-04 15:37 | 3.19340 | 100.62226 | 25775 ft | 452 kts | 121° |
| 2026-05-04 15:38 | 3.17672 | 100.64893 | 25363 ft | 450 kts | 121° |
| 2026-05-04 15:38 | 3.16015 | 100.67542 | 24960 ft | 449 kts | 121° |
| 2026-05-04 15:38 | 3.14384 | 100.70149 | 24546 ft | 447 kts | 121° |
| 2026-05-04 15:38 | 3.12715 | 100.72815 | 24135 ft | 446 kts | 121° |
| 2026-05-04 15:39 | 3.11098 | 100.75400 | 23740 ft | 444 kts | 121° |
| 2026-05-04 15:39 | 3.09457 | 100.78021 | 23291 ft | 442 kts | 121° |
| 2026-05-04 15:39 | 3.06186 | 100.83247 | 22460 ft | 454 kts | 121° |
| 2026-05-04 15:40 | 3.04491 | 100.85954 | 21993 ft | 461 kts | 121° |
| 2026-05-04 15:40 | 3.02793 | 100.88667 | 21494 ft | 458 kts | 121° |
| 2026-05-04 15:40 | 3.01118 | 100.91341 | 21013 ft | 451 kts | 121° |
| 2026-05-04 15:40 | 2.99458 | 100.93991 | 20519 ft | 446 kts | 121° |
| 2026-05-04 15:41 | 2.97811 | 100.96621 | 20003 ft | 444 kts | 121° |
| 2026-05-04 15:41 | 2.96172 | 100.99238 | 19498 ft | 442 kts | 121° |
| 2026-05-04 15:41 | 2.94546 | 101.01835 | 19003 ft | 440 kts | 121° |
| 2026-05-04 15:41 | 2.92922 | 101.04428 | 18511 ft | 437 kts | 121° |
| 2026-05-04 15:42 | 2.91307 | 101.07007 | 18010 ft | 435 kts | 121° |
| 2026-05-04 15:42 | 2.89705 | 101.09564 | 17451 ft | 432 kts | 121° |
| 2026-05-04 15:42 | 2.88137 | 101.12067 | 16913 ft | 429 kts | 121° |
| 2026-05-04 15:42 | 2.86557 | 101.14589 | 16374 ft | 425 kts | 121° |
| 2026-05-04 15:43 | 2.84992 | 101.17088 | 15844 ft | 422 kts | 121° |
| 2026-05-04 15:43 | 2.83957 | 101.18740 | 15498 ft | 420 kts | 121° |
| 2026-05-04 15:43 | 2.82412 | 101.21207 | 14982 ft | 417 kts | 121° |
| 2026-05-04 15:43 | 2.81894 | 101.22034 | 14814 ft | 416 kts | 121° |
| 2026-05-04 15:44 | 2.81333 | 101.22929 | 14629 ft | 414 kts | 121° |
| 2026-05-04 15:44 | 2.79811 | 101.25363 | 14136 ft | 412 kts | 121° |
| 2026-05-04 15:44 | 2.78313 | 101.27796 | 13624 ft | 409 kts | 121° |
| 2026-05-04 15:44 | 2.77314 | 101.29431 | 13242 ft | 407 kts | 121° |
| 2026-05-04 15:45 | 2.75847 | 101.31837 | 12704 ft | 404 kts | 121° |
| 2026-05-04 15:45 | 2.74407 | 101.34199 | 12164 ft | 401 kts | 121° |
| 2026-05-04 15:45 | 2.72953 | 101.36578 | 11638 ft | 399 kts | 121° |
| 2026-05-04 15:45 | 2.71509 | 101.38941 | 11115 ft | 396 kts | 121° |
| 2026-05-04 15:46 | 2.70072 | 101.41290 | 10604 ft | 394 kts | 121° |
| 2026-05-04 15:46 | 2.68645 | 101.43622 | 10098 ft | 391 kts | 121° |
| 2026-05-04 15:46 | 2.67232 | 101.45931 | 9579 ft | 389 kts | 121° |
| 2026-05-04 15:46 | 2.65826 | 101.48228 | 9030 ft | 386 kts | 121° |
| 2026-05-04 15:47 | 2.64426 | 101.50514 | 8486 ft | 384 kts | 121° |
| 2026-05-04 15:47 | 2.63034 | 101.52784 | 7952 ft | 382 kts | 122° |
| 2026-05-04 15:47 | 2.61513 | 101.54950 | 7432 ft | 379 kts | 128° |
| 2026-05-04 15:47 | 2.59851 | 101.56985 | 6921 ft | 377 kts | 130° |
| 2026-05-04 15:48 | 2.58186 | 101.58941 | 6740 ft | 367 kts | 130° |
| 2026-05-04 15:48 | 2.56551 | 101.60864 | 6638 ft | 350 kts | 130° |
| 2026-05-04 15:48 | 2.53581 | 101.64424 | 6444 ft | 322 kts | 129° |
| 2026-05-04 15:49 | 2.52187 | 101.66117 | 6363 ft | 309 kts | 129° |
| 2026-05-04 15:49 | 2.50844 | 101.67757 | 6284 ft | 298 kts | 129° |
| 2026-05-04 15:49 | 2.49689 | 101.69413 | 6215 ft | 286 kts | 111° |
| 2026-05-04 15:49 | 2.49364 | 101.71308 | 6199 ft | 271 kts | 91° |
| 2026-05-04 15:50 | 2.49300 | 101.73158 | 6146 ft | 261 kts | 91° |
| 2026-05-04 15:50 | 2.49247 | 101.74946 | 5929 ft | 254 kts | 91° |
| 2026-05-04 15:50 | 2.49221 | 101.76691 | 5629 ft | 248 kts | 90° |
| 2026-05-04 15:50 | 2.49206 | 101.78407 | 5321 ft | 245 kts | 89° |
| 2026-05-04 15:51 | 2.49457 | 101.80084 | 5009 ft | 244 kts | 76° |
| 2026-05-04 15:51 | 2.49859 | 101.81732 | 4697 ft | 243 kts | 75° |
| 2026-05-04 15:51 | 2.50318 | 101.83361 | 4537 ft | 246 kts | 65° |
| 2026-05-04 15:51 | 2.51448 | 101.84602 | 4501 ft | 243 kts | 26° |
| 2026-05-04 15:52 | 2.53051 | 101.85052 | 4516 ft | 239 kts | 9° |
| 2026-05-04 15:52 | 2.54698 | 101.85077 | 4413 ft | 239 kts | 343° |
| 2026-05-04 15:52 | 2.56203 | 101.84434 | 4180 ft | 232 kts | 334° |
| 2026-05-04 15:52 | 2.57601 | 101.83731 | 3909 ft | 225 kts | 330° |
| 2026-05-04 15:53 | 2.58931 | 101.82930 | 3634 ft | 219 kts | 327° |
| 2026-05-04 15:53 | 2.60187 | 101.82098 | 3365 ft | 214 kts | 326° |
| 2026-05-04 15:53 | 2.61407 | 101.81273 | 3089 ft | 209 kts | 325° |
| 2026-05-04 15:53 | 2.62605 | 101.80463 | 2829 ft | 205 kts | 326° |
| 2026-05-04 15:54 | 2.63772 | 101.79674 | 2583 ft | 200 kts | 326° |
| 2026-05-04 15:54 | 2.64907 | 101.78908 | 2325 ft | 195 kts | 326° |
| 2026-05-04 15:54 | 2.66014 | 101.78161 | 2062 ft | 186 kts | 326° |
| 2026-05-04 15:54 | 2.67053 | 101.77459 | 1831 ft | 174 kts | 326° |
| 2026-05-04 15:55 | 2.68028 | 101.76801 | 1620 ft | 167 kts | 326° |
| 2026-05-04 15:55 | 2.68969 | 101.76165 | 1453 ft | 157 kts | 326° |
| 2026-05-04 15:55 | 2.69859 | 101.75565 | 1217 ft | 152 kts | 326° |
| 2026-05-04 15:55 | 2.70740 | 101.74970 | 1034 ft | 154 kts | 326° |
| 2026-05-04 15:56 | 2.71631 | 101.74368 | 853 ft | 156 kts | 326° |
| 2026-05-04 15:56 | 2.72531 | 101.73760 | 653 ft | 157 kts | 327° |
| 2026-05-04 15:56 | 2.73442 | 101.73149 | 420 ft | 158 kts | 326° |
| 2026-05-04 15:56 | 2.74348 | 101.72535 | 226 ft | 157 kts | 326° |
| 2026-05-04 15:57 | 2.75243 | 101.71936 | 91 ft | 153 kts | 326° |
| 2026-05-04 15:57 | 2.76052 | 101.71390 | 65 ft | 122 kts | 326° |
| 2026-05-04 15:57 | 2.76629 | 101.71005 | 65 ft | 78 kts | 326° |
| 2026-05-04 15:57 | 2.76884 | 101.70757 | 65 ft | 33 kts | 297° |
| 2026-05-04 15:58 | 2.76906 | 101.70634 | 60 ft | 16 kts | 231° |
| 2026-05-04 15:58 | 2.76811 | 101.70655 | 60 ft | 15 kts | 146° |
| 2026-05-04 15:58 | 2.76725 | 101.70710 | 64 ft | 14 kts | 146° |
| 2026-05-04 15:58 | 2.76644 | 101.70765 | 64 ft | 14 kts | 145° |
| 2026-05-04 15:59 | 2.76557 | 101.70822 | 64 ft | 16 kts | 146° |
| 2026-05-04 15:59 | 2.76464 | 101.70886 | 63 ft | 17 kts | 146° |
| 2026-05-04 15:59 | 2.76355 | 101.70961 | 63 ft | 21 kts | 147° |
| 2026-05-04 15:59 | 2.76218 | 101.71028 | 62 ft | 23 kts | 162° |
| 2026-05-04 16:00 | 2.76065 | 101.71056 | 69 ft | 23 kts | 163° |
| 2026-05-04 16:00 | 2.75921 | 101.71138 | 68 ft | 22 kts | 145° |
| 2026-05-04 16:00 | 2.75803 | 101.71090 | 72 ft | 21 kts | 236° |
| 2026-05-04 16:00 | 2.75723 | 101.70969 | 63 ft | 20 kts | 237° |
| 2026-05-04 16:01 | 2.75645 | 101.70853 | 69 ft | 20 kts | 236° |
| 2026-05-04 16:01 | 2.75558 | 101.70785 | 67 ft | 13 kts | 223° |
| 2026-05-04 16:01 | 2.75520 | 101.70742 | 72 ft | 5 kts | 199° |
| 2026-05-04 16:01 | 2.75490 | 101.70753 | 66 ft | 2 kts | 142° |
| 2026-05-04 16:02 | 2.75483 | 101.70758 | 66 ft | 0 kts | 144° |